Time;durP1;ratioP1;P1;durP2;ratioP2;P2;SDS_P1;SDS_P2;PMS_P1;PMS_P2;Temp;Humidity;BMP_temperature;BMP_pressure;BME280_temperature;BME280_humidity;BME280_pressure;Samples;Min_cycle;Max_cycle;Signal;HPM_P1;HPM_P2
2021/08/26 00:00:17;;;;;;;;;;;;;;;18.18;56.87;99490.25;3337523;29;20027;-77
2021/08/26 00:05:56;;;;;;;;;;;;;;;18.17;56.73;99483.19;3335661;29;20015;-78
2021/08/26 00:07:37;;;;;;;;;;;;;;;18.17;56.80;99477.78;3336994;29;19928;-79
2021/08/26 00:09:17;;;;;;;;;;;;;;;18.17;56.69;99485.88;3337054;29;19935;-80
2021/08/26 00:10:58;;;;;;;;;;;;;;;18.16;57.13;99476.19;3336666;29;19928;-70
2021/08/26 00:12:39;;;;;;;;;;;;;;;18.17;57.25;99472.41;3332941;29;19932;-71
2021/08/26 00:14:19;;;;;;;;;;;;;;;18.18;57.31;99473.25;3335389;29;19972;-72
2021/08/26 00:16:00;;;;;;;;;;;;;;;18.19;57.53;99459.47;3337793;29;19962;-72
2021/08/26 00:17:41;;;;;;;;;;;;;;;18.18;57.85;99463.25;3336964;29;19929;-71
2021/08/26 00:19:21;;;;;;;;;;;;;;;18.18;58.19;99457.88;3335988;29;19928;-71
2021/08/26 00:21:02;;;;;;;;;;;;;;;18.18;57.68;99462.44;3336682;29;19928;-72
2021/08/26 00:22:42;;;;;;;;;;;;;;;18.17;57.89;99461.63;3337751;29;19928;-72
2021/08/26 00:24:23;;;;;;;;;;;;;;;18.19;57.92;99464.06;3337620;29;19928;-71
2021/08/26 00:26:03;;;;;;;;;;;;;;;18.20;57.80;99471.94;3334836;29;19928;-71
2021/08/26 00:27:44;;;;;;;;;;;;;;;18.22;57.80;99469.78;3337533;29;19934;-71
2021/08/26 00:29:24;;;;;;;;;;;;;;;18.22;58.16;99472.47;3337375;29;19935;-71
2021/08/26 00:31:14;;;;;;;;;;;;;;;18.20;58.09;99471.94;3335427;29;19928;-72
2021/08/26 00:32:55;;;;;;;;;;;;;;;18.18;58.09;99468.66;3337506;29;19936;-71
2021/08/26 00:34:35;;;;;;;;;;;;;;;18.19;58.21;99470.28;3337644;29;20328;-72
2021/08/26 00:36:16;;;;;;;;;;;;;;;18.19;58.45;99464.88;3335785;29;19939;-71
2021/08/26 00:37:57;;;;;;;;;;;;;;;18.20;58.30;99466.53;3336526;29;19972;-71
2021/08/26 00:39:37;;;;;;;;;;;;;;;18.21;58.43;99461.94;3337519;29;19932;-72
2021/08/26 00:41:21;;;;;;;;;;;;;;;18.19;58.58;99459.47;3334554;29;19928;-72
2021/08/26 00:43:02;;;;;;;;;;;;;;;18.20;58.67;99453.03;3337616;29;20027;-71
2021/08/26 00:44:42;;;;;;;;;;;;;;;18.23;59.11;99449.03;3337425;29;20392;-72
2021/08/26 00:46:23;;;;;;;;;;;;;;;18.24;58.97;99450.66;3336464;29;19929;-71
2021/08/26 00:48:04;;;;;;;;;;;;;;;18.25;58.82;99453.09;3335497;29;19928;-71
2021/08/26 00:49:47;;;;;;;;;;;;;;;18.27;58.89;99442.03;3337249;29;19929;-72
2021/08/26 00:51:30;;;;;;;;;;;;;;;18.26;58.68;99449.34;3335409;29;19928;-70
2021/08/26 00:53:10;;;;;;;;;;;;;;;18.22;59.27;99440.09;3337299;29;19929;-73
2021/08/26 00:55:06;;;;;;;;;;;;;;;18.21;59.21;99438.47;3337285;29;20023;-72
2021/08/26 00:56:47;;;;;;;;;;;;;;;18.22;59.08;99436.59;3336583;29;19971;-71
2021/08/26 00:58:28;;;;;;;;;;;;;;;18.21;59.34;99441.19;3334641;29;19928;-71
2021/08/26 01:00:19;;;;;;;;;;;;;;;18.22;59.36;99432.00;3335436;29;19935;-71
2021/08/26 01:02:02;;;;;;;;;;;;;;;18.23;59.15;99439.03;3334705;29;19928;-71
2021/08/26 01:03:46;;;;;;;;;;;;;;;18.23;59.32;99430.97;3337350;29;20026;-71
2021/08/26 01:05:34;;;;;;;;;;;;;;;18.24;59.48;99429.88;3336189;29;20400;-71
2021/08/26 01:07:41;;;;;;;;;;;;;;;18.24;59.17;99424.47;3335721;29;19928;-72
2021/08/26 01:09:22;;;;;;;;;;;;;;;18.25;59.36;99426.13;3333331;29;19932;-71
2021/08/26 01:11:03;;;;;;;;;;;;;;;18.25;59.25;99428.00;3333786;29;20460;-71
2021/08/26 01:12:45;;;;;;;;;;;;;;;18.26;59.03;99435.84;3334400;29;19928;-71
2021/08/26 01:14:26;;;;;;;;;;;;;;;18.26;59.38;99430.44;3325816;29;20324;-71
2021/08/26 01:16:07;;;;;;;;;;;;;;;18.26;59.39;99427.75;3335998;29;19935;-71
2021/08/26 01:17:48;;;;;;;;;;;;;;;18.26;59.59;99425.06;3339005;29;19929;-72
2021/08/26 01:19:28;;;;;;;;;;;;;;;18.25;59.20;99428.81;3339396;29;19967;-71
2021/08/26 01:21:13;;;;;;;;;;;;;;;18.27;59.07;99426.66;3339343;29;19929;-71
2021/08/26 01:22:53;;;;;;;;;;;;;;;18.26;59.60;99422.34;3337360;29;20311;-71
2021/08/26 01:24:34;;;;;;;;;;;;;;;18.25;59.28;99423.44;3339846;29;19929;-71
2021/08/26 01:26:16;;;;;;;;;;;;;;;18.25;59.68;99426.13;3338566;29;19928;-71
2021/08/26 01:28:03;;;;;;;;;;;;;;;18.25;59.43;99425.28;3337772;29;19928;-71
2021/08/26 01:29:46;;;;;;;;;;;;;;;18.24;59.41;99423.66;3337789;29;19963;-72
2021/08/26 01:31:27;;;;;;;;;;;;;;;18.25;59.26;99414.50;3338533;29;19929;-71
2021/08/26 01:33:08;;;;;;;;;;;;;;;18.25;59.52;99419.91;3335231;29;19940;-71
2021/08/26 01:34:49;;;;;;;;;;;;;;;18.24;59.86;99408.28;3338922;29;20320;-71
2021/08/26 01:36:31;;;;;;;;;;;;;;;18.24;59.76;99419.09;3339486;29;20035;-71
2021/08/26 01:38:19;;;;;;;;;;;;;;;18.24;59.70;99412.88;3338222;29;20411;-72
2021/08/26 01:40:00;;;;;;;;;;;;;;;18.24;59.98;99424.47;3339385;29;19928;-71
2021/08/26 01:41:40;;;;;;;;;;;;;;;18.23;59.99;99425.56;3338608;29;20010;-71
2021/08/26 01:43:23;;;;;;;;;;;;;;;18.22;59.75;99421.22;3337666;29;19928;-71
2021/08/26 01:45:04;;;;;;;;;;;;;;;18.23;59.89;99422.06;3339285;29;20324;-70
2021/08/26 01:46:45;;;;;;;;;;;;;;;18.23;59.88;99433.66;3339349;29;19936;-72
2021/08/26 01:48:25;;;;;;;;;;;;;;;18.24;59.17;99432.56;3338484;29;20311;-71
2021/08/26 01:50:06;;;;;;;;;;;;;;;18.23;59.61;99424.75;3339262;29;19936;-70
2021/08/26 01:51:46;;;;;;;;;;;;;;;18.22;59.99;99421.22;3339413;29;19966;-72
2021/08/26 01:53:27;;;;;;;;;;;;;;;18.21;60.01;99414.19;3337306;29;21250;-72
2021/08/26 01:55:08;;;;;;;;;;;;;;;18.21;60.11;99408.81;3339237;29;19936;-72
2021/08/26 01:56:48;;;;;;;;;;;;;;;18.24;59.92;99405.59;3337444;29;19928;-72
2021/08/26 01:58:29;;;;;;;;;;;;;;;18.26;60.07;99403.47;3338070;29;19984;-72
2021/08/26 02:00:09;;;;;;;;;;;;;;;18.28;59.94;99392.44;3338581;29;19928;-72
2021/08/26 02:01:50;;;;;;;;;;;;;;;18.28;59.52;99398.66;3338949;29;19977;-71
2021/08/26 02:03:31;;;;;;;;;;;;;;;18.26;59.77;99405.34;3337547;29;20496;-72
2021/08/26 02:05:11;;;;;;;;;;;;;;;18.24;60.21;99400.19;3339274;29;20051;-72
2021/08/26 02:06:52;;;;;;;;;;;;;;;18.25;59.82;99399.16;3337919;29;21094;-72
2021/08/26 02:08:32;;;;;;;;;;;;;;;18.24;60.08;99392.09;3339283;29;19928;-71
2021/08/26 02:10:13;;;;;;;;;;;;;;;18.24;60.16;99404.78;3339150;29;19929;-71
2021/08/26 02:11:53;;;;;;;;;;;;;;;18.25;59.77;99404.53;3338011;29;20312;-71
2021/08/26 02:13:34;;;;;;;;;;;;;;;18.27;59.72;99402.38;3338116;29;19935;-71
2021/08/26 02:15:15;;;;;;;;;;;;;;;18.29;59.90;99413.75;3335295;29;19932;-71
2021/08/26 02:16:56;;;;;;;;;;;;;;;18.29;60.09;99410.25;3337955;29;19928;-72
2021/08/26 02:18:36;;;;;;;;;;;;;;;18.26;60.35;99408.88;3338065;29;19928;-72
2021/08/26 02:20:17;;;;;;;;;;;;;;;18.23;60.40;99412.06;3338650;29;20015;-72
2021/08/26 02:21:58;;;;;;;;;;;;;;;18.21;60.44;99416.91;3338872;29;19929;-71
2021/08/26 02:23:38;;;;;;;;;;;;;;;18.20;59.99;99420.66;3337555;29;19928;-71
2021/08/26 02:25:19;;;;;;;;;;;;;;;18.18;59.99;99414.72;3335763;29;19935;-71
2021/08/26 02:26:59;;;;;;;;;;;;;;;18.18;59.87;99414.72;3338372;29;19933;-71
2021/08/26 02:28:40;;;;;;;;;;;;;;;18.20;60.05;99415.28;3335690;29;19951;-72
2021/08/26 02:30:20;;;;;;;;;;;;;;;18.21;60.40;99403.41;3336169;29;20468;-72
2021/08/26 02:32:01;;;;;;;;;;;;;;;18.23;59.97;99403.16;3334953;29;20304;-72
2021/08/26 02:33:41;;;;;;;;;;;;;;;18.25;59.94;99401.00;3337319;29;19935;-72
2021/08/26 02:35:22;;;;;;;;;;;;;;;18.23;59.79;99422.84;3336024;29;19933;-72
2021/08/26 02:37:03;;;;;;;;;;;;;;;18.19;60.27;99404.72;3336926;29;20439;-71
2021/08/26 02:38:43;;;;;;;;;;;;;;;18.16;60.17;99414.13;3336613;29;19944;-72
2021/08/26 02:40:24;;;;;;;;;;;;;;;18.15;60.17;99412.50;3337915;29;19928;-71
2021/08/26 02:42:04;;;;;;;;;;;;;;;18.15;60.34;99409.81;3338762;29;19929;-72
2021/08/26 02:43:45;;;;;;;;;;;;;;;18.20;60.34;99415.28;3337573;29;19932;-72
2021/08/26 02:45:25;;;;;;;;;;;;;;;18.22;60.24;99409.63;3336272;29;19935;-72
2021/08/26 02:47:06;;;;;;;;;;;;;;;18.21;60.21;99413.38;3337786;29;19929;-71
2021/08/26 02:48:46;;;;;;;;;;;;;;;18.20;60.33;99412.59;3338520;29;20388;-71
2021/08/26 02:50:28;;;;;;;;;;;;;;;18.22;60.20;99421.22;3338255;29;19963;-71
2021/08/26 02:52:08;;;;;;;;;;;;;;;18.25;60.14;99415.34;3338019;29;19928;-71
2021/08/26 02:53:49;;;;;;;;;;;;;;;18.21;59.62;99403.41;3338551;29;19928;-71
2021/08/26 02:55:29;;;;;;;;;;;;;;;18.21;60.21;99416.91;3337587;29;19936;-71
2021/08/26 02:57:10;;;;;;;;;;;;;;;18.18;60.41;99412.00;3336741;29;20316;-72
2021/08/26 02:58:50;;;;;;;;;;;;;;;18.17;60.27;99421.16;3335913;29;20392;-71
2021/08/26 03:00:31;;;;;;;;;;;;;;;18.19;60.32;99420.91;3337766;29;19948;-71
2021/08/26 03:02:11;;;;;;;;;;;;;;;18.20;60.07;99412.59;3337616;29;19928;-71
2021/08/26 03:03:52;;;;;;;;;;;;;;;18.26;60.38;99416.97;3338283;29;20320;-72
2021/08/26 03:05:32;;;;;;;;;;;;;;;18.28;60.29;99425.63;3336796;29;19929;-71
2021/08/26 03:07:13;;;;;;;;;;;;;;;18.29;60.09;99421.84;3336349;29;20312;-72
2021/08/26 03:08:53;;;;;;;;;;;;;;;18.30;59.71;99418.09;3336695;29;19951;-71
2021/08/26 03:10:34;;;;;;;;;;;;;;;18.28;60.10;99430.22;3338113;29;19928;-71
2021/08/26 03:12:15;;;;;;;;;;;;;;;18.28;60.13;99425.63;3335847;29;20015;-71
2021/08/26 03:13:55;;;;;;;;;;;;;;;18.29;59.83;99427.25;3336326;29;19993;-71
2021/08/26 03:15:36;;;;;;;;;;;;;;;18.26;59.85;99425.06;3334915;29;19972;-70
2021/08/26 03:17:16;;;;;;;;;;;;;;;18.25;60.24;99415.34;3335263;29;20023;-70
2021/08/26 03:18:57;;;;;;;;;;;;;;;18.26;60.22;99425.06;3333482;29;20015;-72
2021/08/26 03:20:39;;;;;;;;;;;;;;;18.29;59.61;99427.25;3335042;29;19929;-71
2021/08/26 03:22:20;;;;;;;;;;;;;;;18.28;60.08;99428.31;3334250;29;19933;-71
2021/08/26 03:24:00;;;;;;;;;;;;;;;18.26;60.21;99433.16;3338196;29;19929;-71
2021/08/26 03:25:42;;;;;;;;;;;;;;;18.26;59.81;99433.16;3337587;29;19934;-71
2021/08/26 03:27:22;;;;;;;;;;;;;;;18.23;60.15;99430.97;3334422;29;19939;-70
2021/08/26 03:29:03;;;;;;;;;;;;;;;18.22;59.99;99428.50;3334134;29;19935;-71
2021/08/26 03:30:44;;;;;;;;;;;;;;;18.20;60.15;99427.94;3325730;29;19933;-71
2021/08/26 03:32:24;;;;;;;;;;;;;;;18.19;60.45;99437.91;3338209;29;19971;-72
2021/08/26 03:34:05;;;;;;;;;;;;;;;18.16;60.29;99433.00;3338255;29;19932;-73
2021/08/26 03:35:48;;;;;;;;;;;;;;;18.14;60.33;99429.75;3335435;29;19928;-72
2021/08/26 03:37:29;;;;;;;;;;;;;;;18.15;60.42;99428.69;3334953;29;20375;-70
2021/08/26 03:39:09;;;;;;;;;;;;;;;18.14;60.64;99424.34;3335301;29;20015;-71
2021/08/26 03:40:50;;;;;;;;;;;;;;;18.17;60.63;99423.03;3337086;29;19928;-72
2021/08/26 03:42:30;;;;;;;;;;;;;;;18.21;60.69;99425.00;3337090;29;19924;-71
2021/08/26 03:44:11;;;;;;;;;;;;;;;18.24;60.15;99429.88;3335948;29;20031;-71
2021/08/26 03:45:51;;;;;;;;;;;;;;;18.28;60.29;99419.41;3336999;29;19929;-70
2021/08/26 03:47:32;;;;;;;;;;;;;;;18.33;59.98;99426.72;3337165;29;20400;-71
2021/08/26 03:49:13;;;;;;;;;;;;;;;18.38;59.91;99424.09;3336862;29;20341;-71
2021/08/26 03:50:53;;;;;;;;;;;;;;;18.41;59.93;99420.91;3337566;29;20007;-71
2021/08/26 03:52:34;;;;;;;;;;;;;;;18.40;60.04;99422.78;3337860;29;19950;-71
2021/08/26 03:54:14;;;;;;;;;;;;;;;18.39;59.99;99426.56;3337100;29;20011;-71
2021/08/26 03:55:55;;;;;;;;;;;;;;;18.41;60.05;99426.31;3337651;29;19928;-70
2021/08/26 03:57:35;;;;;;;;;;;;;;;18.44;59.80;99428.50;3337487;29;19928;-71
2021/08/26 03:59:17;;;;;;;;;;;;;;;18.45;59.66;99430.13;3335695;29;19985;-71
2021/08/26 04:00:58;;;;;;;;;;;;;;;18.42;59.82;99430.63;3337188;29;19989;-71
2021/08/26 04:02:39;;;;;;;;;;;;;;;18.40;60.20;99435.47;3336700;29;19975;-71
2021/08/26 04:04:19;;;;;;;;;;;;;;;18.37;59.97;99433.25;3334555;29;19932;-71
2021/08/26 04:06:00;;;;;;;;;;;;;;;18.34;59.80;99436.47;3337908;29;20438;-71
2021/08/26 04:07:40;;;;;;;;;;;;;;;18.27;60.20;99442.84;3335860;29;19968;-71
2021/08/26 04:09:21;;;;;;;;;;;;;;;18.23;60.80;99436.34;3336002;29;19936;-71
2021/08/26 04:11:02;;;;;;;;;;;;;;;18.21;60.66;99433.09;3336743;29;19935;-71
2021/08/26 04:12:42;;;;;;;;;;;;;;;18.21;60.34;99437.66;3337541;29;19928;-72
2021/08/26 04:14:23;;;;;;;;;;;;;;;18.19;60.45;99432.50;3334783;29;20469;-71
2021/08/26 04:16:03;;;;;;;;;;;;;;;18.20;60.71;99434.16;3334401;29;19932;-72
2021/08/26 04:17:44;;;;;;;;;;;;;;;18.23;60.61;99432.84;3337625;29;20388;-72
2021/08/26 04:19:24;;;;;;;;;;;;;;;18.27;60.47;99437.47;3336752;29;20311;-72
2021/08/26 04:21:05;;;;;;;;;;;;;;;18.31;60.53;99430.50;3335897;29;19929;-72
2021/08/26 04:22:45;;;;;;;;;;;;;;;18.36;60.28;99437.03;3337131;29;20047;-72
2021/08/26 04:24:26;;;;;;;;;;;;;;;18.40;60.31;99433.56;3336966;29;19929;-72
2021/08/26 04:26:07;;;;;;;;;;;;;;;18.41;60.05;99423.63;3336084;29;20023;-72
2021/08/26 04:27:48;;;;;;;;;;;;;;;18.42;59.98;99425.22;3335330;29;20414;-72
2021/08/26 04:29:28;;;;;;;;;;;;;;;18.43;60.23;99421.44;3336666;29;20305;-72
2021/08/26 04:31:09;;;;;;;;;;;;;;;18.46;59.95;99429.06;3336178;29;20368;-72
2021/08/26 04:32:49;;;;;;;;;;;;;;;18.48;60.06;99425.06;3335375;29;19925;-72
2021/08/26 04:34:30;;;;;;;;;;;;;;;18.51;60.20;99426.44;3335903;29;19928;-72
2021/08/26 04:36:11;;;;;;;;;;;;;;;18.51;60.23;99421.84;3335631;29;19929;-72
2021/08/26 04:37:52;;;;;;;;;;;;;;;18.56;59.99;99420.25;3337310;29;20359;-70
2021/08/26 04:39:33;;;;;;;;;;;;;;;18.57;60.16;99430.81;3334225;29;20293;-70
2021/08/26 04:41:13;;;;;;;;;;;;;;;18.57;60.02;99430.81;3335541;29;19939;-70
2021/08/26 04:42:54;;;;;;;;;;;;;;;18.56;60.14;99434.59;3336645;29;19929;-71
2021/08/26 04:44:34;;;;;;;;;;;;;;;18.57;59.89;99422.69;3336064;29;19932;-71
2021/08/26 04:46:15;;;;;;;;;;;;;;;18.61;60.08;99429.25;3336709;29;19935;-71
2021/08/26 04:47:55;;;;;;;;;;;;;;;18.62;60.12;99417.38;3338735;29;19928;-72
2021/08/26 04:49:36;;;;;;;;;;;;;;;18.67;60.06;99422.81;3340032;29;19984;-70
2021/08/26 04:51:16;;;;;;;;;;;;;;;18.73;59.76;99420.97;3337957;29;20001;-70
2021/08/26 04:52:58;;;;;;;;;;;;;;;18.76;59.62;99423.19;3339660;29;19928;-70
2021/08/26 04:54:38;;;;;;;;;;;;;;;18.78;59.72;99425.66;3338873;29;19928;-71
2021/08/26 04:56:19;;;;;;;;;;;;;;;18.78;59.77;99428.34;3338698;29;19989;-71
2021/08/26 04:57:59;;;;;;;;;;;;;;;18.78;59.54;99436.44;3338099;29;19935;-71
2021/08/26 04:59:39;;;;;;;;;;;;;;;18.74;59.55;99423.44;3339961;29;20000;-70
2021/08/26 05:01:20;;;;;;;;;;;;;;;18.74;59.70;99436.94;3339571;29;19933;-70
2021/08/26 05:03:03;;;;;;;;;;;;;;;18.76;59.97;99430.47;3338034;29;20361;-70
2021/08/26 05:04:43;;;;;;;;;;;;;;;18.79;59.74;99436.19;3339916;29;19935;-70
2021/08/26 05:06:24;;;;;;;;;;;;;;;18.83;59.78;99437.31;3337275;29;20459;-70
2021/08/26 05:08:04;;;;;;;;;;;;;;;18.85;59.39;99429.78;3337986;29;20351;-71
2021/08/26 05:09:45;;;;;;;;;;;;;;;18.85;59.48;99437.88;3338810;29;19977;-70
2021/08/26 05:11:26;;;;;;;;;;;;;;;18.83;59.84;99431.09;3333864;29;20015;-69
2021/08/26 05:13:07;;;;;;;;;;;;;;;18.85;59.69;99423.56;3336664;29;20312;-70
2021/08/26 05:14:49;;;;;;;;;;;;;;;18.89;59.68;99432.75;3337484;29;20035;-70
2021/08/26 05:16:30;;;;;;;;;;;;;;;18.95;59.75;99427.16;3337972;29;19936;-70
2021/08/26 05:18:10;;;;;;;;;;;;;;;19.01;59.79;99425.31;3337754;29;20026;-71
2021/08/26 05:19:55;;;;;;;;;;;;;;;19.05;59.33;99423.75;3339377;29;20016;-71
2021/08/26 05:21:35;;;;;;;;;;;;;;;19.12;59.45;99429.72;3337774;29;20385;-70
2021/08/26 05:23:17;;;;;;;;;;;;;;;19.17;59.43;99432.47;3336423;29;20300;-71
2021/08/26 05:24:57;;;;;;;;;;;;;;;19.26;58.87;99437.41;3338246;29;20324;-71
2021/08/26 05:26:38;;;;;;;;;;;;;;;19.36;58.43;99434.78;3339610;29;19929;-71
2021/08/26 05:28:18;;;;;;;;;;;;;;;19.52;58.75;99430.34;3339600;29;19935;-71
2021/08/26 05:30:00;;;;;;;;;;;;;;;19.65;58.54;99432.59;3338038;29;20395;-71
2021/08/26 05:31:40;;;;;;;;;;;;;;;19.71;58.27;99441.56;3337428;29;19932;-71
2021/08/26 05:33:21;;;;;;;;;;;;;;;19.77;57.88;99435.09;3338747;29;19985;-71
2021/08/26 05:35:01;;;;;;;;;;;;;;;19.79;58.20;99433.78;3339462;29;19927;-71
2021/08/26 05:36:43;;;;;;;;;;;;;;;19.88;57.88;99436.81;3339288;29;19980;-71
2021/08/26 05:38:24;;;;;;;;;;;;;;;19.93;58.03;99444.97;3334557;29;19992;-71
2021/08/26 05:40:04;;;;;;;;;;;;;;;20.00;57.88;99437.41;3339416;29;19935;-71
2021/08/26 05:41:45;;;;;;;;;;;;;;;20.07;57.64;99444.47;3338374;29;19929;-70
2021/08/26 05:43:25;;;;;;;;;;;;;;;20.13;57.16;99448.81;3336293;29;19936;-71
2021/08/26 05:45:06;;;;;;;;;;;;;;;20.16;57.39;99441.03;3336197;29;19976;-71
2021/08/26 05:46:47;;;;;;;;;;;;;;;20.17;57.39;99439.94;3339230;29;20023;-71
2021/08/26 05:48:28;;;;;;;;;;;;;;;20.18;57.53;99451.56;3339097;29;19928;-71
2021/08/26 05:50:09;;;;;;;;;;;;;;;20.16;57.29;99457.25;3338176;29;19928;-71
2021/08/26 05:51:50;;;;;;;;;;;;;;;20.13;57.31;99452.34;3337393;29;19996;-70
2021/08/26 05:53:30;;;;;;;;;;;;;;;20.18;57.53;99454.25;3338609;29;19965;-70
2021/08/26 05:55:11;;;;;;;;;;;;;;;20.23;57.06;99457.00;3339052;29;19985;-71
2021/08/26 05:56:51;;;;;;;;;;;;;;;20.31;57.09;99448.38;3338943;29;20397;-71
2021/08/26 05:58:32;;;;;;;;;;;;;;;20.33;56.89;99467.06;3333107;29;21723;-72
2021/08/26 06:00:12;;;;;;;;;;;;;;;20.24;57.31;99455.94;3336369;29;20477;-72
2021/08/26 06:01:54;;;;;;;;;;;;;;;20.17;57.20;99452.66;3331863;29;20308;-71
2021/08/26 06:03:34;;;;;;;;;;;;;;;20.10;57.29;99450.16;3337316;29;19928;-71
2021/08/26 06:05:15;;;;;;;;;;;;;;;20.05;57.60;99459.06;3339105;29;19935;-71
2021/08/26 06:06:55;;;;;;;;;;;;;;;19.95;57.67;99459.00;3337101;29;19937;-72
2021/08/26 06:08:36;;;;;;;;;;;;;;;19.91;57.86;99462.53;3338393;29;19935;-71
2021/08/26 06:10:17;;;;;;;;;;;;;;;19.91;58.14;99463.34;3339238;29;19935;-72
2021/08/26 06:11:57;;;;;;;;;;;;;;;19.92;57.94;99450.63;3338837;29;19928;-72
2021/08/26 06:13:38;;;;;;;;;;;;;;;19.92;58.03;99462.25;3336548;29;19928;-71
2021/08/26 06:15:18;;;;;;;;;;;;;;;19.93;57.93;99455.78;3333889;29;19928;-71
2021/08/26 06:16:59;;;;;;;;;;;;;;;19.98;57.95;99458.50;3334927;29;19929;-72
2021/08/26 06:18:39;;;;;;;;;;;;;;;20.02;57.76;99465.00;3337688;29;19977;-71
2021/08/26 06:20:20;;;;;;;;;;;;;;;20.09;57.52;99464.78;3338090;29;19936;-71
2021/08/26 06:22:00;;;;;;;;;;;;;;;20.23;57.61;99459.69;3338584;29;20011;-71
2021/08/26 06:23:41;;;;;;;;;;;;;;;20.38;56.94;99464.38;3336602;29;20472;-73
2021/08/26 06:25:21;;;;;;;;;;;;;;;20.48;56.99;99478.75;3337937;29;19985;-72
2021/08/26 06:27:05;;;;;;;;;;;;;;;20.55;56.76;99470.44;3337176;29;19924;-71
2021/08/26 06:28:46;;;;;;;;;;;;;;;20.61;56.70;99482.09;3338775;29;20348;-72
2021/08/26 06:30:28;;;;;;;;;;;;;;;20.59;56.83;99479.63;3338697;29;20475;-72
2021/08/26 06:32:08;;;;;;;;;;;;;;;20.57;56.99;99486.41;3337992;29;19928;-71
2021/08/26 06:33:58;;;;;;;;;;;;;;;20.52;57.09;99479.03;3338650;29;20376;-73
2021/08/26 06:35:39;;;;;;;;;;;;;;;20.44;57.38;99483.06;3338681;29;19974;-73
2021/08/26 06:37:19;;;;;;;;;;;;;;;20.34;57.33;99472.22;3336209;29;19928;-73
2021/08/26 06:39:00;;;;;;;;;;;;;;;20.38;57.25;99484.13;3336932;29;19936;-72
2021/08/26 06:40:40;;;;;;;;;;;;;;;20.39;57.25;99480.34;3336849;29;19938;-72
2021/08/26 06:42:21;;;;;;;;;;;;;;;20.42;57.05;99482.53;3338507;29;19928;-72
2021/08/26 06:44:01;;;;;;;;;;;;;;;20.43;57.36;99492.28;3334287;29;19967;-73
2021/08/26 06:45:43;;;;;;;;;;;;;;;20.39;57.40;99485.75;3335519;29;20007;-72
2021/08/26 06:47:23;;;;;;;;;;;;;;;20.42;57.34;99490.66;3338437;29;20026;-72
2021/08/26 06:49:04;;;;;;;;;;;;;;;20.43;57.54;99492.28;3337289;29;20508;-71
2021/08/26 06:50:44;;;;;;;;;;;;;;;20.44;57.25;99488.47;3336630;29;19928;-71
2021/08/26 06:52:25;;;;;;;;;;;;;;;20.45;57.44;99489.31;3335543;29;19964;-72
2021/08/26 06:54:05;;;;;;;;;;;;;;;20.49;57.08;99491.22;3336587;29;19928;-72
2021/08/26 06:55:46;;;;;;;;;;;;;;;20.58;57.17;99490.75;3338623;29;19972;-71
2021/08/26 06:57:29;;;;;;;;;;;;;;;20.74;57.00;99487.00;3338368;29;19935;-71
2021/08/26 06:59:10;;;;;;;;;;;;;;;20.93;56.36;99479.19;3335866;29;19929;-71
2021/08/26 07:00:50;;;;;;;;;;;;;;;21.10;56.20;99490.59;3336778;29;19928;-72
2021/08/26 07:02:31;;;;;;;;;;;;;;;21.23;56.05;99494.69;3337861;29;19932;-71
2021/08/26 07:04:11;;;;;;;;;;;;;;;21.29;56.00;99490.88;3335711;29;20340;-72
2021/08/26 07:05:52;;;;;;;;;;;;;;;21.35;55.76;99489.00;3337436;29;19932;-71
2021/08/26 07:07:32;;;;;;;;;;;;;;;21.47;55.61;99491.47;3338360;29;20042;-71
2021/08/26 07:09:13;;;;;;;;;;;;;;;21.59;55.46;99489.31;3338154;29;19928;-71
2021/08/26 07:10:54;;;;;;;;;;;;;;;21.75;55.43;99490.09;3337481;29;20027;-71
2021/08/26 07:12:34;;;;;;;;;;;;;;;21.93;54.71;99488.72;3338034;29;19976;-70
2021/08/26 07:14:15;;;;;;;;;;;;;;;21.97;54.55;99489.81;3337356;29;20364;-70
2021/08/26 07:15:55;;;;;;;;;;;;;;;21.94;54.56;99493.88;3329382;29;20027;-70
2021/08/26 07:17:37;;;;;;;;;;;;;;;21.94;54.77;99498.47;3331268;29;19935;-71
2021/08/26 07:19:17;;;;;;;;;;;;;;;21.98;54.76;99496.84;3337999;29;19929;-71
2021/08/26 07:21:00;;;;;;;;;;;;;;;22.04;54.52;99498.47;3337354;29;19936;-72
2021/08/26 07:22:45;;;;;;;;;;;;;;;22.10;54.66;99499.28;3337268;29;19932;-70
2021/08/26 07:24:25;;;;;;;;;;;;;;;22.10;54.18;99497.38;3337000;29;20357;-73
2021/08/26 07:26:06;;;;;;;;;;;;;;;22.01;54.52;99496.31;3337107;29;19928;-71
2021/08/26 07:27:47;;;;;;;;;;;;;;;21.93;54.64;99496.88;3337423;29;19932;-71
2021/08/26 07:29:27;;;;;;;;;;;;;;;21.85;54.81;99508.28;3337029;29;20309;-70
2021/08/26 07:31:08;;;;;;;;;;;;;;;21.75;55.03;99512.63;3337512;29;20399;-71
2021/08/26 07:32:48;;;;;;;;;;;;;;;21.70;55.01;99507.19;3335987;29;19928;-72
2021/08/26 07:34:29;;;;;;;;;;;;;;;21.66;55.10;99508.00;3336969;29;19990;-72
2021/08/26 07:36:09;;;;;;;;;;;;;;;21.61;55.31;99503.41;3336309;29;20297;-71
2021/08/26 07:37:50;;;;;;;;;;;;;;;21.55;55.45;99507.19;3336839;29;20003;-71
2021/08/26 07:39:30;;;;;;;;;;;;;;;21.47;55.64;99505.03;3336955;29;19936;-72
2021/08/26 07:41:11;;;;;;;;;;;;;;;21.41;55.84;99495.28;3335820;29;20361;-72
2021/08/26 07:42:51;;;;;;;;;;;;;;;21.32;55.96;99506.63;3333204;29;19928;-72
2021/08/26 07:44:33;;;;;;;;;;;;;;;21.28;56.24;99502.81;3336962;29;19929;-71
2021/08/26 07:46:14;;;;;;;;;;;;;;;21.29;56.43;99506.34;3337312;29;20407;-71
2021/08/26 07:47:54;;;;;;;;;;;;;;;21.33;56.42;99499.31;3336405;29;20388;-74
2021/08/26 07:49:35;;;;;;;;;;;;;;;21.44;55.98;99506.38;3337117;29;20008;-71
2021/08/26 07:51:17;;;;;;;;;;;;;;;21.57;56.28;99510.47;3336972;29;20984;-72
2021/08/26 07:52:57;;;;;;;;;;;;;;;21.80;55.68;99508.28;3337295;29;20312;-72
2021/08/26 07:54:37;;;;;;;;;;;;;;;22.10;55.40;99521.81;3337759;29;19932;-71
2021/08/26 07:56:18;;;;;;;;;;;;;;;22.39;55.78;99516.59;3337325;29;19983;-75
2021/08/26 07:57:59;;;;;;;;;;;;;;;22.62;54.85;99526.00;3335934;29;19928;-72
2021/08/26 07:59:40;;;;;;;;;;;;;;;22.78;54.49;99523.22;3336144;29;20348;-73
2021/08/26 08:01:20;;;;;;;;;;;;;;;22.90;54.33;99531.03;3339747;29;19935;-74
2021/08/26 08:03:02;;;;;;;;;;;;;;;22.98;54.38;99522.34;3335692;29;20019;-74
2021/08/26 08:04:44;;;;;;;;;;;;;;;23.13;54.52;99524.13;3337188;29;19928;-74
2021/08/26 08:06:25;;;;;;;;;;;;;;;23.41;53.77;99523.38;3336858;29;19980;-75
2021/08/26 08:08:06;;;;;;;;;;;;;;;23.72;53.52;99525.91;3336739;29;19929;-73
2021/08/26 08:09:46;;;;;;;;;;;;;;;24.04;52.65;99528.06;3336865;29;20423;-74
2021/08/26 08:11:29;;;;;;;;;;;;;;;24.31;52.29;99532.94;3336832;29;19935;-74
2021/08/26 08:13:10;;;;;;;;;;;;;;;24.60;51.97;99537.53;3337103;29;20304;-74
2021/08/26 08:14:50;;;;;;;;;;;;;;;24.89;51.52;99536.66;3337507;29;20019;-74
2021/08/26 08:16:32;;;;;;;;;;;;;;;25.12;50.89;99533.06;3337569;29;20312;-74
2021/08/26 08:18:13;;;;;;;;;;;;;;;25.35;50.32;99533.28;3337171;29;19933;-75
2021/08/26 08:19:54;;;;;;;;;;;;;;;25.55;50.26;99526.69;3337627;29;20293;-74
2021/08/26 08:21:35;;;;;;;;;;;;;;;25.77;49.81;99528.78;3337984;29;19939;-73
2021/08/26 08:23:15;;;;;;;;;;;;;;;26.03;49.10;99527.25;3337636;29;20278;-73
2021/08/26 08:24:57;;;;;;;;;;;;;;;26.34;48.93;99534.88;3337643;29;19928;-73
2021/08/26 08:26:37;;;;;;;;;;;;;;;26.53;48.68;99534.78;3337429;29;19929;-73
2021/08/26 08:28:18;;;;;;;;;;;;;;;26.54;48.44;99528.22;3337259;29;19928;-73
2021/08/26 08:29:59;;;;;;;;;;;;;;;26.42;47.68;99528.69;3336503;29;19963;-73
2021/08/26 08:31:40;;;;;;;;;;;;;;;26.28;48.21;99531.44;3343610;29;19928;-73
2021/08/26 08:33:21;;;;;;;;;;;;;;;26.16;48.20;99527.59;3344939;29;19938;-73
2021/08/26 08:35:03;;;;;;;;;;;;;;;26.01;48.37;99540.41;3348742;29;19963;-74
2021/08/26 08:36:44;;;;;;;;;;;;;;;25.88;48.68;99536.53;3348076;29;19928;-73
2021/08/26 08:38:26;;;;;;;;;;;;;;;25.76;49.16;99538.06;3348860;29;19937;-79
2021/08/26 08:40:09;;;;;;;;;;;;;;;25.69;49.11;99535.75;3347658;29;19932;-80
2021/08/26 08:41:50;;;;;;;;;;;;;;;25.65;49.77;99543.72;3348339;29;20392;-81
2021/08/26 08:43:31;;;;;;;;;;;;;;;25.59;49.57;99549.56;3336515;29;19932;-79
2021/08/26 08:45:12;;;;;;;;;;;;;;;25.48;49.66;99548.09;3338138;29;19929;-74
2021/08/26 08:46:55;;;;;;;;;;;;;;;25.49;49.91;99552.47;3348992;29;19928;-73
2021/08/26 08:48:40;;;;;;;;;;;;;;;25.74;49.58;99537.56;3341408;29;20311;-73
2021/08/26 08:50:23;;;;;;;;;;;;;;;26.06;49.23;99526.66;3336188;29;20457;-71